Time;durP1;ratioP1;P1;durP2;ratioP2;P2;SDS_P1;SDS_P2;PMS_P1;PMS_P2;Temp;Humidity;BMP_temperature;BMP_pressure;BME280_temperature;BME280_humidity;BME280_pressure;Samples;Min_cycle;Max_cycle;Signal;HPM_P1;HPM_P2
2022/09/07 00:00:04;;;;;;;6.75;1.80;;;;;;;21.83;71.17;100792.63;4995431;28;20062;-64
2022/09/07 00:02:32;;;;;;;6.47;2.17;;;;;;;21.89;70.56;100790.28;4995267;28;20069;-65
2022/09/07 00:04:59;;;;;;;6.25;2.05;;;;;;;22.05;70.80;100788.00;4996090;28;20050;-64
2022/09/07 00:07:26;;;;;;;8.00;2.60;;;;;;;22.08;70.23;100787.22;4993541;28;20054;-64
2022/09/07 00:09:54;;;;;;;8.52;2.50;;;;;;;21.85;70.67;100792.22;4993837;28;20061;-66
2022/09/07 00:12:21;;;;;;;6.80;1.90;;;;;;;21.70;71.32;100793.28;4993193;28;20046;-65
2022/09/07 00:14:49;;;;;;;7.63;2.08;;;;;;;21.79;71.20;100799.41;4995062;28;20058;-65
2022/09/07 00:17:16;;;;;;;6.03;2.20;;;;;;;21.89;70.96;100791.09;4995318;28;20065;-65
2022/09/07 00:19:43;;;;;;;7.03;2.53;;;;;;;21.77;71.47;100791.34;4995851;28;20046;-65
2022/09/07 00:22:11;;;;;;;6.97;1.83;;;;;;;21.92;71.16;100784.69;4994448;28;20077;-65
2022/09/07 00:24:38;;;;;;;9.15;2.45;;;;;;;21.92;71.52;100793.09;4994105;28;20054;-64
2022/09/07 00:27:05;;;;;;;7.45;1.90;;;;;;;21.81;71.65;100791.41;4993562;28;20054;-66
2022/09/07 00:29:33;;;;;;;6.38;2.05;;;;;;;21.80;72.29;100793.41;4995723;28;20058;-64
2022/09/07 00:32:00;;;;;;;4.68;2.17;;;;;;;21.74;72.19;100792.09;4996207;28;20058;-65
2022/09/07 00:34:27;;;;;;;7.10;2.58;;;;;;;21.83;72.06;100789.81;4994754;28;20050;-65
2022/09/07 00:36:55;;;;;;;8.73;2.47;;;;;;;21.69;72.38;100791.66;4995284;28;20062;-64
2022/09/07 00:39:22;;;;;;;6.60;2.50;;;;;;;21.79;73.10;100788.97;4994280;28;20054;-65
2022/09/07 00:41:49;;;;;;;8.63;3.15;;;;;;;21.96;72.91;100788.34;4978954;28;20061;-65
2022/09/07 00:44:56;;;;;;;10.68;2.83;;;;;;;21.96;72.28;100782.72;4992784;28;20058;-65
2022/09/07 00:47:37;;;;;;;7.35;2.42;;;;;;;21.94;73.03;100782.31;4995063;28;20073;-64
2022/09/07 00:50:33;;;;;;;9.82;2.40;;;;;;;21.97;72.87;100789.13;4994913;28;20562;-66
2022/09/07 00:53:05;;;;;;;8.88;2.40;;;;;;;21.76;72.84;100792.53;4986237;28;20065;-65
2022/09/07 00:55:33;;;;;;;7.28;2.55;;;;;;;21.64;73.33;100789.19;4976430;28;20058;-65
2022/09/07 00:58:01;;;;;;;6.40;2.50;;;;;;;21.74;73.24;100783.69;4966156;28;20054;-65
2022/09/07 01:00:29;;;;;;;9.07;2.80;;;;;;;21.78;73.12;100786.56;4991346;28;20409;-66
2022/09/07 01:02:58;;;;;;;9.05;2.60;;;;;;;21.73;72.59;100789.69;4993950;28;20038;-65
2022/09/07 01:05:30;;;;;;;11.02;2.53;;;;;;;21.69;72.89;100792.47;4992626;28;20046;-64
2022/09/07 01:07:58;;;;;;;6.82;2.08;;;;;;;21.69;73.03;100788.88;4994264;28;20050;-64
2022/09/07 01:10:31;;;;;;;9.23;2.05;;;;;;;21.77;72.04;100785.75;4993508;28;20063;-64
2022/09/07 01:12:59;;;;;;;7.68;2.15;;;;;;;21.78;71.87;100784.56;4976097;28;20051;-65
2022/09/07 01:15:38;;;;;;;7.78;2.33;;;;;;;21.87;71.29;100785.06;4994595;28;20437;-64
2022/09/07 01:18:15;;;;;;;8.88;2.20;;;;;;;21.93;70.94;100777.88;4994694;28;20530;-65
2022/09/07 01:20:49;;;;;;;7.75;1.95;;;;;;;21.92;71.17;100784.69;5009524;28;20388;-65
2022/09/07 01:23:43;;;;;;;8.48;2.25;;;;;;;21.79;70.34;100786.16;4993755;28;20046;-66
2022/09/07 01:26:56;;;;;;;6.57;1.67;;;;;;;21.71;69.94;100784.47;4994598;28;20061;-65
2022/09/07 01:29:29;;;;;;;8.18;2.15;;;;;;;21.74;69.30;100782.91;4978548;28;20063;-65
2022/09/07 01:32:17;;;;;;;4.88;1.33;;;;;;;21.63;69.57;100782.81;5007012;28;20059;-65
2022/09/07 01:34:49;;;;;;;7.97;2.17;;;;;;;21.68;68.92;100776.84;4972106;28;20058;-65
2022/09/07 01:37:35;;;;;;;5.13;1.80;;;;;;;21.65;69.70;100780.44;4987417;28;20069;-65
2022/09/07 01:40:16;;;;;;;7.05;1.75;;;;;;;21.66;69.83;100773.63;4996575;28;20055;-66
2022/09/07 01:42:59;;;;;;;5.78;1.58;;;;;;;21.58;68.20;100782.34;4997646;28;20054;-67
2022/09/07 01:45:30;;;;;;;7.15;1.95;;;;;;;21.51;67.98;100785.88;4998518;28;20050;-64
2022/09/07 01:47:59;;;;;;;5.22;1.77;;;;;;;21.66;68.78;100784.00;4997729;28;20050;-65
2022/09/07 01:50:50;;;;;;;7.35;1.80;;;;;;;21.67;68.78;100778.00;4993468;28;20056;-64
2022/09/07 01:53:22;;;;;;;7.68;1.73;;;;;;;21.71;68.70;100772.44;4996455;28;20050;-64
2022/09/07 01:55:59;;;;;;;5.90;1.63;;;;;;;21.55;68.31;100774.72;4981074;28;20061;-64
2022/09/07 01:58:34;;;;;;;6.03;1.80;;;;;;;21.65;68.25;100771.19;4997913;28;20058;-65
2022/09/07 02:01:07;;;;;;;10.55;1.90;;;;;;;21.39;67.97;100771.34;4998065;28;20046;-66
2022/09/07 02:03:42;;;;;;;7.57;2.20;;;;;;;21.49;68.82;100776.25;4997256;28;20046;-64
2022/09/07 02:06:19;;;;;;;5.80;1.70;;;;;;;21.52;68.24;100770.66;4996010;28;20046;-65
2022/09/07 02:08:54;;;;;;;6.38;1.75;;;;;;;21.56;67.81;100774.31;4997251;28;20505;-65
2022/09/07 02:11:34;;;;;;;6.15;1.80;;;;;;;21.33;68.46;100772.88;4997149;28;20050;-65
2022/09/07 02:14:24;;;;;;;5.90;1.50;;;;;;;21.22;68.68;100767.16;4998142;28;20043;-64
2022/09/07 02:17:14;;;;;;;4.82;1.50;;;;;;;21.27;68.57;100762.00;4997242;28;20042;-64
2022/09/07 02:19:49;;;;;;;6.95;1.60;;;;;;;21.05;69.62;100757.38;4977636;28;20047;-65
2022/09/07 02:22:21;;;;;;;4.70;1.50;;;;;;;21.19;68.60;100753.91;4994233;28;20054;-65
2022/09/07 02:24:53;;;;;;;5.60;2.08;;;;;;;21.27;69.96;100764.81;4968097;28;20511;-64
2022/09/07 02:27:24;;;;;;;6.95;1.80;;;;;;;21.21;68.14;100759.94;4978469;28;20069;-65
2022/09/07 02:29:52;;;;;;;5.65;1.52;;;;;;;21.27;69.08;100763.22;5011808;28;20526;-65
2022/09/07 02:32:20;;;;;;;8.40;1.58;;;;;;;21.05;67.91;100770.56;4996410;28;20056;-65
2022/09/07 02:34:48;;;;;;;9.73;1.83;;;;;;;21.22;68.53;100770.75;4996917;28;20061;-65
2022/09/07 02:37:17;;;;;;;9.73;1.58;;;;;;;21.09;68.31;100766.63;4996529;28;20051;-65
2022/09/07 02:39:44;;;;;;;9.13;1.88;;;;;;;21.26;69.16;100765.19;4997860;28;20061;-65
2022/09/07 02:42:12;;;;;;;9.10;1.80;;;;;;;21.22;68.23;100765.16;4995710;28;20454;-65
2022/09/07 02:44:40;;;;;;;8.93;1.88;;;;;;;21.08;68.03;100770.59;4997675;28;20061;-65
2022/09/07 02:47:38;;;;;;;7.97;2.20;;;;;;;21.09;67.45;100760.22;4997592;28;20487;-65
2022/09/07 02:50:27;;;;;;;6.00;1.70;;;;;;;21.25;69.24;100755.19;4995425;28;20053;-65
2022/09/07 02:53:16;;;;;;;8.35;1.80;;;;;;;21.03;68.28;100759.75;4980541;28;20054;-65
2022/09/07 02:56:05;;;;;;;4.20;1.50;;;;;;;21.07;68.29;100757.81;4997636;28;20042;-65
2022/09/07 02:58:57;;;;;;;7.60;1.90;;;;;;;20.84;68.34;100770.28;4995995;28;20057;-65
2022/09/07 03:01:42;;;;;;;6.53;1.73;;;;;;;21.04;68.67;100768.97;4997564;28;20055;-65
2022/09/07 03:04:17;;;;;;;6.05;1.58;;;;;;;21.03;68.27;100770.13;4996509;28;20722;-65
2022/09/07 03:06:47;;;;;;;7.53;2.28;;;;;;;20.89;68.61;100761.53;4978473;28;20065;-64
2022/09/07 03:09:18;;;;;;;6.82;1.80;;;;;;;20.99;68.61;100769.31;4995579;28;20069;-65
2022/09/07 03:11:45;;;;;;;5.38;1.85;;;;;;;20.96;68.28;100768.03;4995961;28;20061;-64
2022/09/07 03:14:19;;;;;;;5.25;1.50;;;;;;;20.89;69.17;100767.13;4995922;28;20046;-65
2022/09/07 03:16:51;;;;;;;7.57;1.60;;;;;;;20.78;67.97;100777.41;4996603;28;21956;-64
2022/09/07 03:19:18;;;;;;;8.70;1.63;;;;;;;20.74;68.03;100768.97;4997119;28;20541;-65
2022/09/07 03:21:46;;;;;;;6.47;1.45;;;;;;;20.88;69.03;100771.13;4979570;28;20050;-65
2022/09/07 03:24:13;;;;;;;7.93;1.73;;;;;;;20.76;68.47;100780.59;4994845;28;20414;-65
2022/09/07 03:26:44;;;;;;;7.68;2.00;;;;;;;20.77;69.26;100779.41;4996550;28;20046;-65
2022/09/07 03:29:12;;;;;;;6.93;1.70;;;;;;;20.71;68.25;100771.72;4994615;28;20057;-65
2022/09/07 03:31:39;;;;;;;7.47;1.60;;;;;;;20.72;68.98;100774.13;4996594;28;20042;-65
2022/09/07 03:34:07;;;;;;;8.65;2.03;;;;;;;20.81;68.47;100780.25;4997014;28;20058;-65
2022/09/07 03:36:34;;;;;;;13.90;1.90;;;;;;;20.85;67.89;100783.09;4979128;28;20050;-65
2022/09/07 03:39:03;;;;;;;7.88;1.92;;;;;;;20.83;68.19;100786.28;4996820;28;20517;-65
2022/09/07 03:41:30;;;;;;;7.57;1.70;;;;;;;20.80;67.90;100789.03;4993019;28;20046;-65
2022/09/07 03:44:04;;;;;;;9.10;1.95;;;;;;;20.55;68.60;100790.69;4986061;28;20046;-65
2022/09/07 03:46:33;;;;;;;7.55;1.80;;;;;;;20.43;69.31;100794.53;4986713;28;20042;-64
2022/09/07 03:49:00;;;;;;;7.88;1.85;;;;;;;20.50;69.31;100803.03;4997044;28;20061;-64
2022/09/07 03:51:28;;;;;;;7.20;1.75;;;;;;;20.71;69.34;100797.69;4996004;28;20061;-64
2022/09/07 03:53:56;;;;;;;8.68;2.00;;;;;;;20.61;68.75;100794.75;4994231;28;20084;-64
2022/09/07 03:56:24;;;;;;;9.70;1.80;;;;;;;20.69;68.71;100790.88;4995691;28;20058;-65
2022/09/07 03:58:53;;;;;;;11.35;1.70;;;;;;;20.62;68.68;100796.38;4994615;28;20057;-66
2022/09/07 04:01:23;;;;;;;9.32;1.80;;;;;;;20.70;69.76;100798.09;4995638;28;20054;-65
2022/09/07 04:03:50;;;;;;;;;;;;;;;20.47;68.91;100805.78;4995142;28;20371;-65
2022/09/07 04:06:18;;;;;;;5.90;1.80;;;;;;;20.57;68.91;100811.53;4993269;28;20389;-64
2022/09/07 04:08:45;;;;;;;6.80;1.60;;;;;;;20.59;69.53;100811.16;4994911;28;20410;-66
2022/09/07 04:11:15;;;;;;;10.93;1.92;;;;;;;20.76;69.74;100807.78;4994584;28;20554;-65
2022/09/07 04:13:43;;;;;;;6.22;2.00;;;;;;;20.69;69.57;100814.09;4963137;28;20054;-64
2022/09/07 04:16:21;;;;;;;8.80;1.90;;;;;;;20.59;68.53;100825.94;4995018;28;20050;-65
2022/09/07 04:18:49;;;;;;;11.93;1.85;;;;;;;20.45;69.99;100824.94;4995417;28;20050;-65
2022/09/07 04:21:17;;;;;;;8.00;1.73;;;;;;;20.41;69.11;100832.47;4995761;28;20053;-65
2022/09/07 04:23:44;;;;;;;8.43;1.77;;;;;;;20.28;69.94;100831.03;4978515;28;20383;-65
2022/09/07 04:26:23;;;;;;;10.35;1.77;;;;;;;20.29;69.49;100830.69;4978475;28;20422;-64
2022/09/07 04:28:51;;;;;;;9.40;1.83;;;;;;;20.35;69.93;100831.16;4994069;28;20062;-65
2022/09/07 04:31:19;;;;;;;13.07;2.53;;;;;;;20.30;69.07;100825.88;4994407;28;20432;-65
2022/09/07 04:33:47;;;;;;;10.27;1.70;;;;;;;20.25;69.44;100832.63;4995730;28;20057;-65
2022/09/07 04:36:16;;;;;;;9.85;2.58;;;;;;;20.27;70.09;100823.84;4962093;28;20054;-64
2022/09/07 04:38:44;;;;;;;5.40;1.42;;;;;;;20.34;69.55;100819.16;4995913;28;20046;-64
2022/09/07 04:41:14;;;;;;;10.07;1.92;;;;;;;20.25;70.14;100821.44;4977717;28;20050;-64
2022/09/07 04:43:42;;;;;;;9.23;1.92;;;;;;;20.27;69.79;100827.44;4994108;28;20054;-65
2022/09/07 04:46:33;;;;;;;9.70;1.73;;;;;;;20.05;70.03;100831.03;4995107;28;20053;-65
2022/09/07 04:49:07;;;;;;;8.82;1.75;;;;;;;20.20;70.69;100815.34;4985057;28;20070;-67
2022/09/07 04:51:35;;;;;;;12.57;2.25;;;;;;;20.23;70.43;100818.19;4995088;28;20061;-65
2022/09/07 04:54:03;;;;;;;11.35;2.13;;;;;;;20.49;70.61;100822.97;4994264;28;20528;-65
2022/09/07 04:56:31;;;;;;;7.85;2.08;;;;;;;20.41;69.46;100822.06;4993786;28;20057;-65
2022/09/07 04:59:00;;;;;;;15.05;2.25;;;;;;;20.27;69.54;100823.84;4994618;28;20426;-65
2022/09/07 05:01:28;;;;;;;8.80;1.87;;;;;;;20.51;70.24;100821.41;4992803;28;20050;-65
2022/09/07 05:03:55;;;;;;;8.65;1.83;;;;;;;20.44;69.00;100823.31;4995774;28;20299;-65
2022/09/07 05:06:23;;;;;;;13.63;1.88;;;;;;;20.39;68.93;100830.03;4991367;28;20057;-65
2022/09/07 05:08:52;;;;;;;17.98;3.17;;;;;;;20.35;69.54;100831.16;4994368;28;20062;-65
2022/09/07 05:11:21;;;;;;;12.00;2.00;;;;;;;20.40;69.92;100833.66;4992514;28;20061;-65
2022/09/07 05:13:56;;;;;;;10.25;1.90;;;;;;;20.26;70.04;100833.44;4994669;28;20057;-64
2022/09/07 05:16:24;;;;;;;14.45;2.28;;;;;;;20.35;70.46;100831.16;4993685;28;20414;-65
2022/09/07 05:19:00;;;;;;;10.50;1.70;;;;;;;20.43;69.95;100832.88;4978263;28;20058;-67
2022/09/07 05:21:32;;;;;;;11.30;1.88;;;;;;;20.41;70.24;100836.06;4994243;28;20038;-66
2022/09/07 05:24:00;;;;;;;10.52;2.13;;;;;;;20.44;70.29;100837.28;4994439;28;20054;-66
2022/09/07 05:26:29;;;;;;;10.25;2.10;;;;;;;20.49;69.96;100836.97;4993480;28;20050;-65
2022/09/07 05:28:57;;;;;;;7.67;1.70;;;;;;;20.57;69.33;100836.72;4995054;28;20061;-65
2022/09/07 05:31:44;;;;;;;7.70;1.75;;;;;;;20.58;69.92;100840.31;4993339;28;20054;-66
2022/09/07 05:34:12;;;;;;;10.32;1.75;;;;;;;20.62;70.21;100846.78;4977482;28;20050;-66
2022/09/07 05:36:55;;;;;;;10.10;2.40;;;;;;;20.53;69.31;100852.63;4992681;28;20524;-66
2022/09/07 05:39:22;;;;;;;9.60;2.33;;;;;;;20.51;70.00;100838.22;4996044;28;20054;-66
2022/09/07 05:41:50;;;;;;;8.15;2.03;;;;;;;20.63;69.69;100837.16;4992317;28;20054;-65
2022/09/07 05:44:17;;;;;;;9.60;2.10;;;;;;;20.68;69.09;100839.63;4993352;28;20042;-65
2022/09/07 05:47:04;;;;;;;11.43;2.08;;;;;;;20.46;68.77;100835.75;4990867;28;20054;-65
2022/09/07 05:49:32;;;;;;;10.10;2.13;;;;;;;20.54;69.31;100831.06;4993334;28;20058;-65
2022/09/07 05:51:59;;;;;;;15.52;2.50;;;;;;;20.47;69.70;100831.75;4992171;28;20061;-67
2022/09/07 05:54:27;;;;;;;11.35;2.20;;;;;;;20.49;69.47;100834.97;4994525;28;20053;-65
2022/09/07 05:56:54;;;;;;;14.35;2.47;;;;;;;20.70;69.63;100828.88;4993142;28;20051;-65
2022/09/07 05:59:21;;;;;;;12.57;2.22;;;;;;;20.52;68.72;100831.41;4992013;28;20058;-65
2022/09/07 06:01:49;;;;;;;9.10;2.10;;;;;;;20.55;69.23;100841.06;5025660;28;20054;-65
2022/09/07 06:04:16;;;;;;;8.25;2.20;;;;;;;20.37;69.56;100835.19;4993783;28;20046;-67
2022/09/07 06:06:43;;;;;;;13.98;2.40;;;;;;;20.40;70.75;100848.44;4993219;28;20046;-67
2022/09/07 06:09:31;;;;;;;14.68;2.58;;;;;;;20.48;70.56;100846.56;4993673;28;20148;-66
2022/09/07 06:11:59;;;;;;;10.38;2.28;;;;;;;20.42;70.79;100845.25;4993306;28;20047;-65
2022/09/07 06:14:26;;;;;;;15.88;2.35;;;;;;;20.48;69.83;100836.19;4993402;28;20059;-65
2022/09/07 06:16:54;;;;;;;20.52;4.40;;;;;;;20.54;69.92;100833.88;4993046;28;20054;-65
2022/09/07 06:19:21;;;;;;;13.93;6.32;;;;;;;20.60;69.84;100835.13;4993524;28;20057;-64
2022/09/07 06:21:48;;;;;;;15.15;3.70;;;;;;;20.63;69.94;100843.59;4993626;28;20069;-66
2022/09/07 06:24:16;;;;;;;27.27;8.20;;;;;;;20.79;69.62;100840.59;4995026;28;20065;-66
2022/09/07 06:26:44;;;;;;;22.92;10.13;;;;;;;20.69;69.50;100849.66;4996546;28;20042;-66
2022/09/07 06:29:12;;;;;;;18.80;3.83;;;;;;;20.86;69.38;100849.09;4996789;28;20050;-65
2022/09/07 06:31:39;;;;;;;15.88;6.25;;;;;;;20.85;69.32;100839.88;4995832;28;20678;-67
2022/09/07 06:34:27;;;;;;;17.50;4.32;;;;;;;20.94;68.95;100842.41;4997164;28;20050;-66
2022/09/07 06:36:56;;;;;;;17.92;6.13;;;;;;;20.94;69.16;100837.63;4997598;28;20402;-66
2022/09/07 06:39:27;;;;;;;17.48;4.45;;;;;;;20.83;68.80;100847.88;4996672;28;20058;-66
2022/09/07 06:41:54;;;;;;;10.38;2.97;;;;;;;20.83;69.26;100845.09;4980778;28;20054;-67
2022/09/07 06:44:33;;;;;;;636.97;68.43;;;;;;;20.98;68.49;100841.31;4995781;28;20049;-67
2022/09/07 06:47:02;;;;;;;328.02;35.30;;;;;;;21.06;69.25;100842.22;4997040;28;20046;-67
2022/09/07 06:49:31;;;;;;;69.95;7.70;;;;;;;21.04;68.72;100850.97;4995249;28;20077;-65
2022/09/07 06:51:58;;;;;;;232.02;21.40;;;;;;;21.01;68.48;100848.94;5028374;28;20054;-66
2022/09/07 06:54:26;;;;;;;203.05;21.52;;;;;;;21.06;69.49;100836.63;4991211;28;20058;-68
2022/09/07 06:57:13;;;;;;;60.08;7.63;;;;;;;21.09;68.63;100841.44;4992920;28;20089;-67
2022/09/07 06:59:40;;;;;;;47.90;6.25;;;;;;;20.98;68.81;100841.31;4994329;28;20053;-65
2022/09/07 07:02:09;;;;;;;50.90;6.85;;;;;;;21.02;68.85;100838.56;4994007;28;20046;-66
2022/09/07 07:04:37;;;;;;;45.08;5.65;;;;;;;21.37;68.34;100843.78;4972067;28;20059;-70
2022/09/07 07:07:11;;;;;;;112.95;13.10;;;;;;;21.63;66.12;100833.28;4994088;28;20046;-67
2022/09/07 07:09:39;;;;;;;84.45;9.57;;;;;;;21.51;66.16;100833.53;4995824;28;20066;-68
2022/09/07 07:12:07;;;;;;;55.53;5.70;;;;;;;21.42;65.60;100837.81;5005817;28;20147;-68
2022/09/07 07:14:35;;;;;;;56.45;5.85;;;;;;;21.43;65.43;100831.84;4987923;28;20061;-68
2022/09/07 07:17:08;;;;;;;39.70;4.57;;;;;;;21.57;64.94;100823.56;4991195;28;20486;-68
2022/09/07 07:19:36;;;;;;;51.55;6.78;;;;;;;21.59;65.14;100824.00;4995871;28;20069;-68
2022/09/07 07:22:03;;;;;;;27.45;7.50;;;;;;;21.47;65.53;100838.28;4998634;28;20397;-68
2022/09/07 07:24:50;;;;;;;40.08;14.38;;;;;;;21.43;65.62;100840.25;4995914;28;20054;-68
2022/09/07 07:27:20;;;;;;;20.48;3.85;;;;;;;21.51;65.15;100835.53;4997711;28;20050;-70
2022/09/07 07:29:47;;;;;;;16.73;3.55;;;;;;;21.51;65.19;100839.16;5004808;28;20358;-68
2022/09/07 07:32:14;;;;;;;22.27;4.07;;;;;;;21.62;64.91;100825.25;4995559;28;20046;-69
2022/09/07 07:34:42;;;;;;;18.85;3.15;;;;;;;21.52;65.27;100837.94;4999016;28;20065;-67
2022/09/07 07:37:09;;;;;;;19.85;4.50;;;;;;;21.55;65.63;100828.75;4991734;28;20077;-69
2022/09/07 07:39:36;;;;;;;31.70;5.82;;;;;;;21.77;64.51;100821.38;5027650;28;20050;-68
2022/09/07 07:42:24;;;;;;;34.88;6.05;;;;;;;21.74;65.08;100822.16;4998654;28;20104;-68
2022/09/07 07:44:52;;;;;;;32.10;6.35;;;;;;;21.75;65.95;100824.56;5006124;28;20065;-67
2022/09/07 07:47:39;;;;;;;28.60;6.70;;;;;;;21.87;65.35;100831.91;5003356;28;20050;-68
2022/09/07 07:50:08;;;;;;;24.98;6.95;;;;;;;22.05;64.83;100830.09;5001826;28;20054;-68
2022/09/07 07:52:55;;;;;;;20.70;4.00;;;;;;;21.77;65.39;100825.00;4991111;28;20054;-68
2022/09/07 07:55:43;;;;;;;22.63;4.50;;;;;;;22.04;64.69;100820.84;4999265;28;20069;-68
2022/09/07 07:58:11;;;;;;;22.50;3.97;;;;;;;22.19;64.37;100824.59;4991893;28;20049;-67
2022/09/07 08:00:39;;;;;;;18.02;3.97;;;;;;;22.25;64.09;100815.41;4991925;28;20057;-67
2022/09/07 08:03:21;;;;;;;18.85;3.60;;;;;;;22.25;64.03;100818.22;4991120;28;20065;-67
2022/09/07 08:05:49;;;;;;;19.23;3.95;;;;;;;22.07;64.75;100820.06;4991117;28;20053;-67
2022/09/07 08:08:17;;;;;;;25.48;4.63;;;;;;;22.24;64.55;100808.19;4986263;28;20501;-68
2022/09/07 08:10:46;;;;;;;23.27;4.07;;;;;;;22.08;64.32;100812.47;4990618;28;20054;-67
2022/09/07 08:13:15;;;;;;;21.75;3.90;;;;;;;21.98;64.54;100814.00;4992958;28;20054;-67
2022/09/07 08:15:45;;;;;;;18.50;3.38;;;;;;;22.03;64.70;100810.84;4976671;28;20034;-70
2022/09/07 08:18:14;;;;;;;24.65;3.92;;;;;;;22.09;65.45;100809.25;4991119;28;20063;-69
2022/09/07 08:20:42;;;;;;;23.67;4.22;;;;;;;22.20;64.81;100807.34;4999337;28;20046;-68
2022/09/07 08:23:10;;;;;;;25.77;5.00;;;;;;;22.26;64.76;100813.41;4995728;28;20042;-67
2022/09/07 08:25:37;;;;;;;30.10;10.48;;;;;;;22.34;64.58;100809.47;4988998;28;20050;-68
2022/09/07 08:28:05;;;;;;;18.58;5.95;;;;;;;22.44;63.66;100803.09;4991463;28;20065;-68
2022/09/07 08:30:32;;;;;;;27.40;4.88;;;;;;;22.41;64.24;100811.50;4995490;28;20054;-68
2022/09/07 08:32:59;;;;;;;23.27;3.70;;;;;;;22.41;64.17;100815.13;5001665;28;20052;-67
2022/09/07 08:35:27;;;;;;;19.63;3.50;;;;;;;22.17;65.10;100808.16;5004899;28;20382;-67
2022/09/07 08:37:54;;;;;;;19.58;4.05;;;;;;;22.09;65.65;100819.69;4984078;28;20049;-67
2022/09/07 08:40:21;;;;;;;23.38;3.58;;;;;;;22.20;65.05;100820.56;4977585;28;20050;-67
2022/09/07 08:43:17;;;;;;;15.25;3.47;;;;;;;22.23;65.27;100826.22;4999106;28;20536;-68
2022/09/07 08:45:49;;;;;;;24.10;3.80;;;;;;;22.35;65.03;100817.47;4989073;28;20466;-68
2022/09/07 08:48:19;;;;;;;18.13;3.50;;;;;;;22.22;65.45;100818.19;4965765;28;20057;-67
2022/09/07 08:50:57;;;;;;;19.20;3.63;;;;;;;22.28;65.47;100811.03;4996758;28;20058;-67
2022/09/07 08:53:24;;;;;;;20.75;3.50;;;;;;;22.36;65.16;100823.91;4972223;28;20045;-67
2022/09/07 08:56:05;;;;;;;42.13;8.98;;;;;;;22.45;64.83;100838.41;4979577;28;20055;-68
2022/09/07 08:58:47;;;;;;;46.25;7.47;;;;;;;22.72;64.39;100831.38;4979595;28;20080;-66
2022/09/07 09:01:22;;;;;;;66.47;7.00;;;;;;;22.58;64.64;100824.91;4974981;28;20637;-68
2022/09/07 09:04:19;;;;;;;32.70;6.65;;;;;;;22.82;64.01;100813.78;4960638;28;20050;-68
2022/09/07 09:07:22;;;;;;;34.53;4.78;;;;;;;22.93;63.42;100802.59;4992928;28;20053;-68
2022/09/07 09:10:15;;;;;;;25.77;4.53;;;;;;;23.05;63.10;100807.88;4984810;28;20061;-68
2022/09/07 09:12:54;;;;;;;23.15;6.07;;;;;;;23.01;63.36;100802.22;5016220;28;20053;-69
2022/09/07 09:15:46;;;;;;;21.65;4.25;;;;;;;23.04;63.16;100803.47;4991018;28;20055;-68
2022/09/07 09:18:47;;;;;;;26.60;10.30;;;;;;;22.97;62.99;100804.25;4993028;28;20142;-68
2022/09/07 09:21:17;;;;;;;21.65;4.78;;;;;;;23.25;62.00;100803.53;4995219;28;20042;-66
2022/09/07 09:23:47;;;;;;;22.25;4.28;;;;;;;23.25;62.43;100801.53;4988041;28;20054;-68
2022/09/07 09:26:28;;;;;;;14.75;3.60;;;;;;;23.43;61.64;100793.19;5017546;28;20054;-68
2022/09/07 09:28:56;;;;;;;20.65;3.67;;;;;;;23.46;61.17;100806.44;4986517;28;20054;-68
2022/09/07 09:31:27;;;;;;;18.88;3.78;;;;;;;23.76;59.83;100794.84;4989171;28;20435;-68
2022/09/07 09:34:04;;;;;;;20.58;3.80;;;;;;;23.68;60.36;100796.81;4974771;28;20061;-68
2022/09/07 09:36:34;;;;;;;19.23;3.92;;;;;;;23.69;60.97;100797.63;4989931;28;20490;-68
2022/09/07 09:39:43;;;;;;;15.07;3.67;;;;;;;23.74;60.63;100798.06;5005595;28;20065;-70
2022/09/07 09:42:10;;;;;;;17.30;3.92;;;;;;;23.73;60.45;100790.00;4995455;28;20046;-68
2022/09/07 09:44:38;;;;;;;19.88;4.03;;;;;;;23.80;60.33;100782.38;4992299;28;20057;-69
2022/09/07 09:47:05;;;;;;;17.15;3.65;;;;;;;24.10;59.22;100782.81;4994787;28;20054;-68
2022/09/07 09:49:53;;;;;;;20.85;3.50;;;;;;;24.10;58.94;100782.00;4987707;28;20114;-67
2022/09/07 09:52:22;;;;;;;18.67;3.95;;;;;;;24.04;58.90;100786.44;4985497;28;20081;-68
2022/09/07 09:55:01;;;;;;;13.90;3.13;;;;;;;23.98;58.38;100788.00;4989256;28;20686;-69
2022/09/07 09:57:56;;;;;;;17.42;3.70;;;;;;;24.15;58.14;100779.59;4976049;28;20051;-68
2022/09/07 10:00:53;;;;;;;24.77;4.45;;;;;;;24.12;57.76;100777.59;4982238;28;20386;-68
2022/09/07 10:03:41;;;;;;;14.38;3.53;;;;;;;24.05;57.83;100776.78;4991768;28;20064;-68
2022/09/07 10:06:28;;;;;;;18.77;3.40;;;;;;;23.82;56.79;100776.34;4994618;28;20548;-69
2022/09/07 10:08:57;;;;;;;18.95;3.65;;;;;;;23.92;57.17;100772.75;5009146;28;20055;-69
2022/09/07 10:11:51;;;;;;;20.70;4.20;;;;;;;23.90;56.74;100773.13;4978062;28;20419;-69
2022/09/07 10:14:42;;;;;;;;;;;;;;;23.89;56.89;100771.53;5002399;28;20054;-68
2022/09/07 10:17:11;;;;;;;20.15;4.22;;;;;;;24.10;56.60;100776.38;4974950;28;19929;-69
2022/09/07 10:19:41;;;;;;;14.63;3.70;;;;;;;24.20;56.57;100772.75;4991892;28;20158;-69
2022/09/07 10:22:24;;;;;;;19.73;3.70;;;;;;;24.16;56.66;100781.22;5003752;28;20046;-69
2022/09/07 10:24:51;;;;;;;18.33;3.70;;;;;;;24.24;56.12;100773.53;5000080;28;20065;-69
2022/09/07 10:27:39;;;;;;;13.65;3.25;;;;;;;24.27;55.43;100775.53;4997795;28;20058;-69
2022/09/07 10:30:15;;;;;;;16.85;3.75;;;;;;;24.19;56.19;100771.94;4987486;28;20054;-68
2022/09/07 10:32:45;;;;;;;15.77;3.60;;;;;;;24.35;56.21;100772.31;5019956;28;20061;-69
2022/09/07 10:35:24;;;;;;;17.25;5.10;;;;;;;24.51;55.47;100771.88;5028157;28;20057;-68
2022/09/07 10:37:58;;;;;;;26.15;8.75;;;;;;;24.37;55.83;100769.09;5001738;28;20049;-69
2022/09/07 10:40:41;;;;;;;24.48;7.43;;;;;;;24.46;56.17;100764.63;4982280;28;20058;-68
2022/09/07 10:43:08;;;;;;;19.83;8.20;;;;;;;24.58;55.76;100757.78;4998562;28;20076;-67
2022/09/07 10:46:02;;;;;;;25.70;8.90;;;;;;;24.52;55.68;100768.66;5001750;28;20057;-68
2022/09/07 10:49:07;;;;;;;22.85;7.40;;;;;;;24.62;55.97;100769.03;5004659;28;20053;-70
2022/09/07 10:51:43;;;;;;;22.05;5.15;;;;;;;24.81;54.66;100765.78;4968434;28;20407;-68
2022/09/07 10:54:48;;;;;;;17.88;4.80;;;;;;;24.84;54.42;100760.13;5002481;28;20054;-68
2022/09/07 10:57:19;;;;;;;21.42;6.80;;;;;;;24.84;54.24;100750.88;5007541;28;20058;-67
2022/09/07 10:59:58;;;;;;;18.17;5.45;;;;;;;24.92;53.23;100750.44;5000947;28;20061;-69
2022/09/07 11:02:47;;;;;;;20.08;5.05;;;;;;;24.90;52.46;100746.41;4998911;28;20069;-68
2022/09/07 11:05:48;;;;;;;15.73;4.38;;;;;;;25.01;52.51;100747.16;4977650;28;20054;-69
2022/09/07 11:08:34;;;;;;;24.35;6.88;;;;;;;24.89;52.01;100742.00;4993733;28;20046;-69
2022/09/07 11:11:41;;;;;;;25.23;11.10;;;;;;;25.07;52.19;100743.50;5002454;28;20050;-68
2022/09/07 11:14:36;;;;;;;18.45;7.97;;;;;;;25.16;51.00;100740.22;4958274;28;20086;-67
2022/09/07 11:17:11;;;;;;;18.45;8.52;;;;;;;25.13;51.66;100749.50;4989849;28;20042;-68
2022/09/07 11:19:58;;;;;;;21.60;9.02;;;;;;;25.12;51.45;100748.69;4972353;28;20062;-67
2022/09/07 11:22:35;;;;;;;15.27;4.85;;;;;;;25.25;50.21;100737.75;4996809;28;20050;-67
2022/09/07 11:25:09;;;;;;;18.77;6.72;;;;;;;25.03;50.75;100739.91;4995315;28;20050;-71
2022/09/07 11:28:16;;;;;;;17.77;6.50;;;;;;;24.74;50.73;100748.91;5016459;28;20057;-72
2022/09/07 11:30:47;;;;;;;23.40;5.32;;;;;;;24.71;50.95;100735.63;4995848;28;20068;-70
2022/09/07 11:33:24;;;;;;;17.05;3.58;;;;;;;24.66;51.67;100738.81;4997427;28;20065;-69
2022/09/07 11:36:14;;;;;;;15.60;4.35;;;;;;;24.89;51.15;100730.72;4993531;28;20062;-69
2022/09/07 11:39:05;;;;;;;29.83;14.30;;;;;;;24.55;51.96;100733.22;4995105;28;20122;-70
2022/09/07 11:41:48;;;;;;;30.33;14.43;;;;;;;24.54;51.96;100731.63;4991959;28;20530;-69
2022/09/07 11:44:29;;;;;;;24.08;8.45;;;;;;;24.44;51.91;100724.03;4988821;28;20053;-69
2022/09/07 11:47:04;;;;;;;19.63;7.30;;;;;;;24.52;51.66;100722.78;4990509;28;20058;-70
2022/09/07 11:49:31;;;;;;;18.45;5.68;;;;;;;24.57;51.83;100713.91;4993781;28;20054;-69
2022/09/07 11:52:18;;;;;;;20.02;5.40;;;;;;;24.55;51.90;100721.19;4989424;28;20050;-68